sensor_id;sensor_type;location;lat;lon;timestamp;temperature;humidity
15615;DHT22;7907;51.368;6.730;2023-02-26T00:01:29;2.50;99.90
15615;DHT22;7907;51.368;6.730;2023-02-26T00:03:58;2.50;99.90
15615;DHT22;7907;51.368;6.730;2023-02-26T00:06:29;2.50;99.90
15615;DHT22;7907;51.368;6.730;2023-02-26T00:08:58;2.50;99.90
15615;DHT22;7907;51.368;6.730;2023-02-26T00:11:26;2.50;99.90
15615;DHT22;7907;51.368;6.730;2023-02-26T00:13:55;2.50;99.90
15615;DHT22;7907;51.368;6.730;2023-02-26T00:16:26;2.50;99.90
15615;DHT22;7907;51.368;6.730;2023-02-26T00:18:54;2.50;99.90
15615;DHT22;7907;51.368;6.730;2023-02-26T00:21:23;2.50;99.90
15615;DHT22;7907;51.368;6.730;2023-02-26T00:23:51;2.50;99.90
15615;DHT22;7907;51.368;6.730;2023-02-26T00:26:19;2.50;99.90
15615;DHT22;7907;51.368;6.730;2023-02-26T00:28:46;2.50;99.90
15615;DHT22;7907;51.368;6.730;2023-02-26T00:31:16;2.50;99.90
15615;DHT22;7907;51.368;6.730;2023-02-26T00:33:45;2.60;99.90
15615;DHT22;7907;51.368;6.730;2023-02-26T00:36:20;2.60;99.90
15615;DHT22;7907;51.368;6.730;2023-02-26T00:39:06;2.60;99.90
15615;DHT22;7907;51.368;6.730;2023-02-26T00:41:36;2.70;99.90
15615;DHT22;7907;51.368;6.730;2023-02-26T00:44:04;2.70;99.90
15615;DHT22;7907;51.368;6.730;2023-02-26T00:46:49;2.70;99.90
15615;DHT22;7907;51.368;6.730;2023-02-26T00:49:26;2.80;99.90
15615;DHT22;7907;51.368;6.730;2023-02-26T00:52:00;2.80;99.90
15615;DHT22;7907;51.368;6.730;2023-02-26T00:54:29;2.80;99.90
15615;DHT22;7907;51.368;6.730;2023-02-26T00:56:58;2.90;99.90
15615;DHT22;7907;51.368;6.730;2023-02-26T00:59:25;2.90;99.90
15615;DHT22;7907;51.368;6.730;2023-02-26T01:01:55;2.90;99.90
15615;DHT22;7907;51.368;6.730;2023-02-26T01:04:23;3.00;99.90
15615;DHT22;7907;51.368;6.730;2023-02-26T01:06:52;2.90;99.90
15615;DHT22;7907;51.368;6.730;2023-02-26T01:09:24;2.90;99.90
15615;DHT22;7907;51.368;6.730;2023-02-26T01:11:53;2.90;99.90
15615;DHT22;7907;51.368;6.730;2023-02-26T01:14:21;2.90;99.90
15615;DHT22;7907;51.368;6.730;2023-02-26T01:16:52;2.90;99.90
15615;DHT22;7907;51.368;6.730;2023-02-26T01:19:30;2.90;99.90
15615;DHT22;7907;51.368;6.730;2023-02-26T01:22:03;2.90;99.90
15615;DHT22;7907;51.368;6.730;2023-02-26T01:24:34;2.80;99.90
15615;DHT22;7907;51.368;6.730;2023-02-26T01:27:02;2.80;99.90
15615;DHT22;7907;51.368;6.730;2023-02-26T01:29:31;2.80;99.90
15615;DHT22;7907;51.368;6.730;2023-02-26T01:32:03;2.80;99.90
15615;DHT22;7907;51.368;6.730;2023-02-26T01:34:37;2.70;99.90
15615;DHT22;7907;51.368;6.730;2023-02-26T01:37:13;2.70;99.90
15615;DHT22;7907;51.368;6.730;2023-02-26T01:39:54;2.70;99.90
15615;DHT22;7907;51.368;6.730;2023-02-26T01:42:31;2.60;99.90
15615;DHT22;7907;51.368;6.730;2023-02-26T01:45:06;2.60;99.90
15615;DHT22;7907;51.368;6.730;2023-02-26T01:47:40;2.60;99.90
15615;DHT22;7907;51.368;6.730;2023-02-26T01:50:15;2.50;99.90
15615;DHT22;7907;51.368;6.730;2023-02-26T01:53:18;2.50;99.90
15615;DHT22;7907;51.368;6.730;2023-02-26T01:55:51;2.50;99.90
15615;DHT22;7907;51.368;6.730;2023-02-26T01:58:22;2.50;99.90
15615;DHT22;7907;51.368;6.730;2023-02-26T02:00:50;2.40;99.90
15615;DHT22;7907;51.368;6.730;2023-02-26T02:03:19;2.40;99.90
15615;DHT22;7907;51.368;6.730;2023-02-26T02:05:51;2.30;99.90
15615;DHT22;7907;51.368;6.730;2023-02-26T02:08:20;2.30;99.90
15615;DHT22;7907;51.368;6.730;2023-02-26T02:10:49;2.30;99.90
15615;DHT22;7907;51.368;6.730;2023-02-26T02:13:30;2.30;99.90
15615;DHT22;7907;51.368;6.730;2023-02-26T02:16:10;2.20;99.90
15615;DHT22;7907;51.368;6.730;2023-02-26T02:18:44;2.20;99.90
15615;DHT22;7907;51.368;6.730;2023-02-26T02:21:32;2.20;99.90
15615;DHT22;7907;51.368;6.730;2023-02-26T02:24:10;2.20;99.90
15615;DHT22;7907;51.368;6.730;2023-02-26T02:26:55;2.10;99.90
15615;DHT22;7907;51.368;6.730;2023-02-26T02:32:35;2.10;99.90
15615;DHT22;7907;51.368;6.730;2023-02-26T02:35:11;2.00;99.90
15615;DHT22;7907;51.368;6.730;2023-02-26T02:37:43;2.00;99.90
15615;DHT22;7907;51.368;6.730;2023-02-26T02:40:15;2.00;99.90
15615;DHT22;7907;51.368;6.730;2023-02-26T02:42:48;2.00;99.90
15615;DHT22;7907;51.368;6.730;2023-02-26T02:45:21;2.00;99.90
15615;DHT22;7907;51.368;6.730;2023-02-26T02:47:54;1.90;99.90
15615;DHT22;7907;51.368;6.730;2023-02-26T02:50:28;1.90;99.90
15615;DHT22;7907;51.368;6.730;2023-02-26T02:53:00;1.90;99.90
15615;DHT22;7907;51.368;6.730;2023-02-26T02:55:30;1.80;99.90
15615;DHT22;7907;51.368;6.730;2023-02-26T02:58:02;1.80;99.90
15615;DHT22;7907;51.368;6.730;2023-02-26T03:00:33;1.80;99.90
15615;DHT22;7907;51.368;6.730;2023-02-26T03:03:08;1.70;99.90
15615;DHT22;7907;51.368;6.730;2023-02-26T03:05:36;1.70;99.90
15615;DHT22;7907;51.368;6.730;2023-02-26T03:08:07;1.70;99.90
15615;DHT22;7907;51.368;6.730;2023-02-26T03:10:35;1.70;99.90
15615;DHT22;7907;51.368;6.730;2023-02-26T03:13:03;1.70;99.90
15615;DHT22;7907;51.368;6.730;2023-02-26T03:15:36;1.70;99.90
15615;DHT22;7907;51.368;6.730;2023-02-26T03:18:20;1.60;99.90
15615;DHT22;7907;51.368;6.730;2023-02-26T03:20:57;1.70;99.90
15615;DHT22;7907;51.368;6.730;2023-02-26T03:23:31;1.60;99.90
15615;DHT22;7907;51.368;6.730;2023-02-26T03:26:05;1.60;99.90
15615;DHT22;7907;51.368;6.730;2023-02-26T03:28:38;1.50;99.90
15615;DHT22;7907;51.368;6.730;2023-02-26T03:31:09;1.50;99.90
15615;DHT22;7907;51.368;6.730;2023-02-26T03:33:58;1.50;99.90
15615;DHT22;7907;51.368;6.730;2023-02-26T03:36:31;1.50;99.90
15615;DHT22;7907;51.368;6.730;2023-02-26T03:39:06;1.50;99.90
15615;DHT22;7907;51.368;6.730;2023-02-26T03:41:39;1.50;99.90
15615;DHT22;7907;51.368;6.730;2023-02-26T03:44:15;1.50;99.90
15615;DHT22;7907;51.368;6.730;2023-02-26T03:46:48;1.40;99.90
15615;DHT22;7907;51.368;6.730;2023-02-26T03:49:22;1.50;99.90
15615;DHT22;7907;51.368;6.730;2023-02-26T03:51:51;1.40;99.90
15615;DHT22;7907;51.368;6.730;2023-02-26T03:54:21;1.40;99.90
15615;DHT22;7907;51.368;6.730;2023-02-26T03:56:51;1.40;99.90
15615;DHT22;7907;51.368;6.730;2023-02-26T03:59:19;1.30;99.90
15615;DHT22;7907;51.368;6.730;2023-02-26T04:01:50;1.40;99.90
15615;DHT22;7907;51.368;6.730;2023-02-26T04:04:24;1.40;99.90
15615;DHT22;7907;51.368;6.730;2023-02-26T04:06:54;1.30;99.90
15615;DHT22;7907;51.368;6.730;2023-02-26T04:09:22;1.30;99.90
15615;DHT22;7907;51.368;6.730;2023-02-26T04:11:52;1.30;99.90
15615;DHT22;7907;51.368;6.730;2023-02-26T04:14:19;1.30;99.90
15615;DHT22;7907;51.368;6.730;2023-02-26T04:16:47;1.20;99.90
15615;DHT22;7907;51.368;6.730;2023-02-26T04:19:14;1.20;99.90
15615;DHT22;7907;51.368;6.730;2023-02-26T04:21:44;1.20;99.90
15615;DHT22;7907;51.368;6.730;2023-02-26T04:24:12;1.20;99.90
15615;DHT22;7907;51.368;6.730;2023-02-26T04:26:40;1.10;99.90
15615;DHT22;7907;51.368;6.730;2023-02-26T04:29:07;1.10;99.90
15615;DHT22;7907;51.368;6.730;2023-02-26T04:31:35;1.10;99.90
15615;DHT22;7907;51.368;6.730;2023-02-26T04:34:03;1.10;99.90
15615;DHT22;7907;51.368;6.730;2023-02-26T04:36:32;1.10;99.90
15615;DHT22;7907;51.368;6.730;2023-02-26T04:39:01;1.10;99.90
15615;DHT22;7907;51.368;6.730;2023-02-26T04:41:28;1.10;99.90
15615;DHT22;7907;51.368;6.730;2023-02-26T04:43:56;1.10;99.90
15615;DHT22;7907;51.368;6.730;2023-02-26T04:46:24;1.10;99.90
15615;DHT22;7907;51.368;6.730;2023-02-26T04:48:51;1.10;99.90
15615;DHT22;7907;51.368;6.730;2023-02-26T04:51:18;1.00;99.90
15615;DHT22;7907;51.368;6.730;2023-02-26T04:53:46;1.00;99.90
15615;DHT22;7907;51.368;6.730;2023-02-26T04:56:14;1.00;99.90
15615;DHT22;7907;51.368;6.730;2023-02-26T04:58:42;1.00;99.90
15615;DHT22;7907;51.368;6.730;2023-02-26T05:01:09;1.00;99.90
15615;DHT22;7907;51.368;6.730;2023-02-26T05:03:38;1.00;99.90
15615;DHT22;7907;51.368;6.730;2023-02-26T05:06:06;1.00;99.90
15615;DHT22;7907;51.368;6.730;2023-02-26T05:08:34;0.90;99.90
15615;DHT22;7907;51.368;6.730;2023-02-26T05:11:03;1.00;99.90
15615;DHT22;7907;51.368;6.730;2023-02-26T05:13:32;0.90;99.90
15615;DHT22;7907;51.368;6.730;2023-02-26T05:15:59;0.90;99.90
15615;DHT22;7907;51.368;6.730;2023-02-26T05:18:27;0.90;99.90
15615;DHT22;7907;51.368;6.730;2023-02-26T05:20:54;0.90;99.90
15615;DHT22;7907;51.368;6.730;2023-02-26T05:23:22;0.90;99.90
15615;DHT22;7907;51.368;6.730;2023-02-26T05:25:49;0.90;99.90
15615;DHT22;7907;51.368;6.730;2023-02-26T05:28:20;0.80;99.90
15615;DHT22;7907;51.368;6.730;2023-02-26T05:30:51;0.80;99.90
15615;DHT22;7907;51.368;6.730;2023-02-26T05:33:19;0.80;99.90
15615;DHT22;7907;51.368;6.730;2023-02-26T05:35:46;0.90;99.90
15615;DHT22;7907;51.368;6.730;2023-02-26T05:38:13;0.80;99.90
15615;DHT22;7907;51.368;6.730;2023-02-26T05:40:41;0.80;99.90
15615;DHT22;7907;51.368;6.730;2023-02-26T05:43:09;0.80;99.90
15615;DHT22;7907;51.368;6.730;2023-02-26T05:45:36;0.70;99.90
15615;DHT22;7907;51.368;6.730;2023-02-26T05:48:05;0.70;99.90
15615;DHT22;7907;51.368;6.730;2023-02-26T05:50:36;0.70;99.90
15615;DHT22;7907;51.368;6.730;2023-02-26T05:53:12;0.60;99.90
15615;DHT22;7907;51.368;6.730;2023-02-26T05:55:40;0.70;99.90
15615;DHT22;7907;51.368;6.730;2023-02-26T05:58:17;0.50;99.90
15615;DHT22;7907;51.368;6.730;2023-02-26T06:00:53;0.60;99.90
15615;DHT22;7907;51.368;6.730;2023-02-26T06:03:27;0.60;99.90
15615;DHT22;7907;51.368;6.730;2023-02-26T06:06:18;0.60;99.90
15615;DHT22;7907;51.368;6.730;2023-02-26T06:08:49;0.60;99.90
15615;DHT22;7907;51.368;6.730;2023-02-26T06:11:23;0.60;99.90
15615;DHT22;7907;51.368;6.730;2023-02-26T06:14:10;0.60;99.90
15615;DHT22;7907;51.368;6.730;2023-02-26T06:16:51;0.60;99.90
15615;DHT22;7907;51.368;6.730;2023-02-26T06:19:39;0.70;99.90
15615;DHT22;7907;51.368;6.730;2023-02-26T06:26:16;0.60;99.90
15615;DHT22;7907;51.368;6.730;2023-02-26T06:29:38;0.60;99.90
15615;DHT22;7907;51.368;6.730;2023-02-26T06:32:44;0.50;99.90
15615;DHT22;7907;51.368;6.730;2023-02-26T06:35:54;0.60;99.90
15615;DHT22;7907;51.368;6.730;2023-02-26T06:39:09;0.50;99.90
15615;DHT22;7907;51.368;6.730;2023-02-26T06:42:03;0.50;99.90
15615;DHT22;7907;51.368;6.730;2023-02-26T06:45:25;0.50;99.90
15615;DHT22;7907;51.368;6.730;2023-02-26T07:32:38;0.80;99.90
15615;DHT22;7907;51.368;6.730;2023-02-26T07:36:50;0.90;99.90
15615;DHT22;7907;51.368;6.730;2023-02-26T07:45:35;1.00;99.90
15615;DHT22;7907;51.368;6.730;2023-02-26T08:07:15;1.40;99.90
15615;DHT22;7907;51.368;6.730;2023-02-26T08:10:17;1.50;99.90
15615;DHT22;7907;51.368;6.730;2023-02-26T08:13:13;1.50;99.90
15615;DHT22;7907;51.368;6.730;2023-02-26T08:16:01;1.60;99.90
15615;DHT22;7907;51.368;6.730;2023-02-26T08:18:57;1.60;99.90
15615;DHT22;7907;51.368;6.730;2023-02-26T08:21:37;1.70;99.90
15615;DHT22;7907;51.368;6.730;2023-02-26T08:24:06;1.80;99.90
15615;DHT22;7907;51.368;6.730;2023-02-26T08:26:35;1.80;99.90
15615;DHT22;7907;51.368;6.730;2023-02-26T08:29:03;1.90;99.90
15615;DHT22;7907;51.368;6.730;2023-02-26T08:31:44;1.90;99.90
15615;DHT22;7907;51.368;6.730;2023-02-26T08:34:16;1.90;99.90
15615;DHT22;7907;51.368;6.730;2023-02-26T08:36:44;2.10;99.90
15615;DHT22;7907;51.368;6.730;2023-02-26T08:39:13;2.10;99.90
15615;DHT22;7907;51.368;6.730;2023-02-26T08:41:40;2.20;99.90
15615;DHT22;7907;51.368;6.730;2023-02-26T08:44:09;2.30;99.90
15615;DHT22;7907;51.368;6.730;2023-02-26T08:46:36;2.30;99.90
15615;DHT22;7907;51.368;6.730;2023-02-26T08:49:04;2.40;99.90
15615;DHT22;7907;51.368;6.730;2023-02-26T08:51:32;2.40;99.90
15615;DHT22;7907;51.368;6.730;2023-02-26T08:54:00;2.50;99.90
15615;DHT22;7907;51.368;6.730;2023-02-26T08:56:29;2.60;99.90
15615;DHT22;7907;51.368;6.730;2023-02-26T08:58:57;2.60;99.90
15615;DHT22;7907;51.368;6.730;2023-02-26T09:01:28;2.70;99.90
15615;DHT22;7907;51.368;6.730;2023-02-26T09:03:55;2.70;99.90
15615;DHT22;7907;51.368;6.730;2023-02-26T09:06:22;2.80;99.90
15615;DHT22;7907;51.368;6.730;2023-02-26T09:08:50;2.90;99.90
15615;DHT22;7907;51.368;6.730;2023-02-26T09:11:17;2.90;99.90
15615;DHT22;7907;51.368;6.730;2023-02-26T09:13:46;3.00;99.90
15615;DHT22;7907;51.368;6.730;2023-02-26T09:16:13;2.90;99.90
15615;DHT22;7907;51.368;6.730;2023-02-26T09:18:41;3.00;99.90
15615;DHT22;7907;51.368;6.730;2023-02-26T09:21:08;3.10;99.90
15615;DHT22;7907;51.368;6.730;2023-02-26T09:23:36;3.10;99.90
15615;DHT22;7907;51.368;6.730;2023-02-26T09:26:03;3.10;99.90
15615;DHT22;7907;51.368;6.730;2023-02-26T09:28:33;3.20;99.90
15615;DHT22;7907;51.368;6.730;2023-02-26T09:31:03;3.30;99.90
15615;DHT22;7907;51.368;6.730;2023-02-26T09:33:31;3.40;99.90
15615;DHT22;7907;51.368;6.730;2023-02-26T09:35:59;3.50;99.90
15615;DHT22;7907;51.368;6.730;2023-02-26T09:38:26;3.60;99.90
15615;DHT22;7907;51.368;6.730;2023-02-26T09:40:57;3.70;99.90
15615;DHT22;7907;51.368;6.730;2023-02-26T09:46:41;3.80;99.90
15615;DHT22;7907;51.368;6.730;2023-02-26T09:49:20;3.80;99.90
15615;DHT22;7907;51.368;6.730;2023-02-26T09:51:52;3.80;99.90
15615;DHT22;7907;51.368;6.730;2023-02-26T09:54:22;3.90;99.90
15615;DHT22;7907;51.368;6.730;2023-02-26T09:56:52;3.90;99.90
15615;DHT22;7907;51.368;6.730;2023-02-26T09:59:23;4.00;99.10
15615;DHT22;7907;51.368;6.730;2023-02-26T10:01:57;4.20;99.00
15615;DHT22;7907;51.368;6.730;2023-02-26T10:04:41;4.30;99.20
15615;DHT22;7907;51.368;6.730;2023-02-26T10:07:20;4.40;98.70
15615;DHT22;7907;51.368;6.730;2023-02-26T10:09:57;4.40;97.80
15615;DHT22;7907;51.368;6.730;2023-02-26T10:12:29;4.50;97.60
15615;DHT22;7907;51.368;6.730;2023-02-26T10:15:03;4.60;97.60
15615;DHT22;7907;51.368;6.730;2023-02-26T10:17:39;4.70;98.30
15615;DHT22;7907;51.368;6.730;2023-02-26T10:20:15;4.80;97.60
15615;DHT22;7907;51.368;6.730;2023-02-26T10:22:50;4.80;97.60
15615;DHT22;7907;51.368;6.730;2023-02-26T10:25:28;4.90;96.20
15615;DHT22;7907;51.368;6.730;2023-02-26T10:28:04;4.90;93.60
15615;DHT22;7907;51.368;6.730;2023-02-26T10:30:40;4.90;93.50
15615;DHT22;7907;51.368;6.730;2023-02-26T10:33:18;4.90;92.60
15615;DHT22;7907;51.368;6.730;2023-02-26T10:35:53;4.90;91.80
15615;DHT22;7907;51.368;6.730;2023-02-26T10:38:24;5.00;91.40
15615;DHT22;7907;51.368;6.730;2023-02-26T10:40:56;5.00;91.00
15615;DHT22;7907;51.368;6.730;2023-02-26T10:43:31;5.00;90.10
15615;DHT22;7907;51.368;6.730;2023-02-26T10:46:09;4.90;89.10
15615;DHT22;7907;51.368;6.730;2023-02-26T10:48:51;4.90;88.20
15615;DHT22;7907;51.368;6.730;2023-02-26T10:51:27;4.90;89.40
15615;DHT22;7907;51.368;6.730;2023-02-26T10:54:03;4.90;89.70
15615;DHT22;7907;51.368;6.730;2023-02-26T10:56:32;5.00;89.10
15615;DHT22;7907;51.368;6.730;2023-02-26T10:59:00;4.80;86.80
15615;DHT22;7907;51.368;6.730;2023-02-26T11:01:30;4.80;86.30
15615;DHT22;7907;51.368;6.730;2023-02-26T11:04:00;4.70;87.00
15615;DHT22;7907;51.368;6.730;2023-02-26T11:06:30;4.70;85.70
15615;DHT22;7907;51.368;6.730;2023-02-26T11:09:00;4.60;84.80
15615;DHT22;7907;51.368;6.730;2023-02-26T11:11:40;4.50;81.70
15615;DHT22;7907;51.368;6.730;2023-02-26T11:14:08;4.50;84.80
15615;DHT22;7907;51.368;6.730;2023-02-26T11:16:44;4.50;83.70
15615;DHT22;7907;51.368;6.730;2023-02-26T11:19:14;4.50;83.90
15615;DHT22;7907;51.368;6.730;2023-02-26T11:21:45;4.60;84.00
15615;DHT22;7907;51.368;6.730;2023-02-26T11:24:17;4.60;83.90
15615;DHT22;7907;51.368;6.730;2023-02-26T11:26:48;4.60;85.90
15615;DHT22;7907;51.368;6.730;2023-02-26T11:29:19;4.70;82.20
15615;DHT22;7907;51.368;6.730;2023-02-26T11:31:47;4.80;82.40
15615;DHT22;7907;51.368;6.730;2023-02-26T11:34:21;4.90;81.90
15615;DHT22;7907;51.368;6.730;2023-02-26T11:36:50;4.90;79.60
15615;DHT22;7907;51.368;6.730;2023-02-26T11:39:21;5.00;79.40
15615;DHT22;7907;51.368;6.730;2023-02-26T11:41:50;5.00;79.40
15615;DHT22;7907;51.368;6.730;2023-02-26T11:44:21;5.10;78.30
15615;DHT22;7907;51.368;6.730;2023-02-26T11:46:52;5.20;80.50
15615;DHT22;7907;51.368;6.730;2023-02-26T11:49:24;5.20;81.00
15615;DHT22;7907;51.368;6.730;2023-02-26T11:52:14;5.50;81.20
15615;DHT22;7907;51.368;6.730;2023-02-26T11:54:44;5.70;82.30
15615;DHT22;7907;51.368;6.730;2023-02-26T11:57:17;6.00;79.10
15615;DHT22;7907;51.368;6.730;2023-02-26T11:59:47;6.30;77.60
15615;DHT22;7907;51.368;6.730;2023-02-26T12:02:18;6.50;72.70
15615;DHT22;7907;51.368;6.730;2023-02-26T12:04:50;6.70;69.10
15615;DHT22;7907;51.368;6.730;2023-02-26T12:07:19;6.80;66.70
15615;DHT22;7907;51.368;6.730;2023-02-26T12:09:47;6.90;64.80
15615;DHT22;7907;51.368;6.730;2023-02-26T12:12:45;7.00;65.10
15615;DHT22;7907;51.368;6.730;2023-02-26T12:15:28;7.30;62.00
15615;DHT22;7907;51.368;6.730;2023-02-26T12:18:16;7.50;60.30
15615;DHT22;7907;51.368;6.730;2023-02-26T12:20:52;7.60;60.00
15615;DHT22;7907;51.368;6.730;2023-02-26T12:23:49;7.70;59.70
15615;DHT22;7907;51.368;6.730;2023-02-26T12:26:24;7.90;57.90
15615;DHT22;7907;51.368;6.730;2023-02-26T12:35:10;8.50;54.20
15615;DHT22;7907;51.368;6.730;2023-02-26T12:37:54;8.70;51.80
15615;DHT22;7907;51.368;6.730;2023-02-26T12:40:51;9.00;51.40
15615;DHT22;7907;51.368;6.730;2023-02-26T12:43:27;9.10;50.50
15615;DHT22;7907;51.368;6.730;2023-02-26T12:46:03;9.30;50.90
15615;DHT22;7907;51.368;6.730;2023-02-26T12:48:44;9.60;51.40
15615;DHT22;7907;51.368;6.730;2023-02-26T12:51:26;9.90;49.80
15615;DHT22;7907;51.368;6.730;2023-02-26T12:54:31;10.00;47.30
15615;DHT22;7907;51.368;6.730;2023-02-26T12:57:15;10.30;46.70
15615;DHT22;7907;51.368;6.730;2023-02-26T13:00:11;10.60;45.90
15615;DHT22;7907;51.368;6.730;2023-02-26T13:05:51;11.10;45.80
15615;DHT22;7907;51.368;6.730;2023-02-26T13:08:26;11.30;45.00
15615;DHT22;7907;51.368;6.730;2023-02-26T13:11:08;11.30;44.10
15615;DHT22;7907;51.368;6.730;2023-02-26T13:13:53;11.20;42.90
15615;DHT22;7907;51.368;6.730;2023-02-26T13:16:34;11.20;42.70
15615;DHT22;7907;51.368;6.730;2023-02-26T13:19:10;11.30;42.20
15615;DHT22;7907;51.368;6.730;2023-02-26T13:21:45;11.10;41.90
15615;DHT22;7907;51.368;6.730;2023-02-26T13:24:17;10.90;41.70
15615;DHT22;7907;51.368;6.730;2023-02-26T13:26:52;10.90;42.40
15615;DHT22;7907;51.368;6.730;2023-02-26T13:29:23;11.10;41.90
15615;DHT22;7907;51.368;6.730;2023-02-26T13:31:57;11.10;41.50
15615;DHT22;7907;51.368;6.730;2023-02-26T13:34:34;11.10;41.00
15615;DHT22;7907;51.368;6.730;2023-02-26T13:37:05;11.40;41.50
15615;DHT22;7907;51.368;6.730;2023-02-26T13:39:40;11.70;41.20
15615;DHT22;7907;51.368;6.730;2023-02-26T13:42:26;12.00;41.00
15615;DHT22;7907;51.368;6.730;2023-02-26T13:45:12;12.40;40.40
15615;DHT22;7907;51.368;6.730;2023-02-26T13:50:44;12.90;38.50
15615;DHT22;7907;51.368;6.730;2023-02-26T13:53:53;13.40;38.20
15615;DHT22;7907;51.368;6.730;2023-02-26T13:59:30;13.60;36.20
15615;DHT22;7907;51.368;6.730;2023-02-26T14:02:14;14.00;37.50
15615;DHT22;7907;51.368;6.730;2023-02-26T14:04:50;14.20;36.80
15615;DHT22;7907;51.368;6.730;2023-02-26T14:07:46;14.60;36.10
15615;DHT22;7907;51.368;6.730;2023-02-26T14:10:16;14.80;35.70
15615;DHT22;7907;51.368;6.730;2023-02-26T14:13:02;15.00;35.40
15615;DHT22;7907;51.368;6.730;2023-02-26T14:15:42;15.10;34.10
15615;DHT22;7907;51.368;6.730;2023-02-26T14:18:29;15.10;33.30
15615;DHT22;7907;51.368;6.730;2023-02-26T14:24:16;15.00;33.70
15615;DHT22;7907;51.368;6.730;2023-02-26T14:26:47;15.00;33.10
15615;DHT22;7907;51.368;6.730;2023-02-26T14:29:21;14.90;32.60
15615;DHT22;7907;51.368;6.730;2023-02-26T14:32:05;15.00;32.80
15615;DHT22;7907;51.368;6.730;2023-02-26T14:34:46;15.20;33.30
15615;DHT22;7907;51.368;6.730;2023-02-26T14:37:17;15.60;33.60
15615;DHT22;7907;51.368;6.730;2023-02-26T14:39:48;15.90;31.80
15615;DHT22;7907;51.368;6.730;2023-02-26T14:42:20;16.10;31.60
15615;DHT22;7907;51.368;6.730;2023-02-26T14:44:50;15.90;31.50
15615;DHT22;7907;51.368;6.730;2023-02-26T14:47:21;16.20;32.10
15615;DHT22;7907;51.368;6.730;2023-02-26T14:49:49;16.30;31.20
15615;DHT22;7907;51.368;6.730;2023-02-26T14:52:53;16.10;30.50
15615;DHT22;7907;51.368;6.730;2023-02-26T14:55:39;16.00;31.00
15615;DHT22;7907;51.368;6.730;2023-02-26T15:01:11;16.20;31.30
15615;DHT22;7907;51.368;6.730;2023-02-26T15:03:59;16.60;31.80
15615;DHT22;7907;51.368;6.730;2023-02-26T15:06:49;16.90;30.90
15615;DHT22;7907;51.368;6.730;2023-02-26T15:09:21;17.20;30.60
15615;DHT22;7907;51.368;6.730;2023-02-26T15:12:04;17.30;29.90
15615;DHT22;7907;51.368;6.730;2023-02-26T15:14:56;17.40;30.20
15615;DHT22;7907;51.368;6.730;2023-02-26T15:17:46;17.60;30.20
15615;DHT22;7907;51.368;6.730;2023-02-26T15:20:24;17.80;30.00
15615;DHT22;7907;51.368;6.730;2023-02-26T15:23:12;17.70;28.90
15615;DHT22;7907;51.368;6.730;2023-02-26T15:25:43;17.90;28.80
15615;DHT22;7907;51.368;6.730;2023-02-26T15:28:13;17.90;29.10
15615;DHT22;7907;51.368;6.730;2023-02-26T15:30:46;18.00;29.00
15615;DHT22;7907;51.368;6.730;2023-02-26T15:33:14;18.00;29.30
15615;DHT22;7907;51.368;6.730;2023-02-26T15:35:47;18.00;29.00
15615;DHT22;7907;51.368;6.730;2023-02-26T15:38:15;18.00;29.00
15615;DHT22;7907;51.368;6.730;2023-02-26T15:40:43;17.80;28.90
15615;DHT22;7907;51.368;6.730;2023-02-26T15:43:16;17.90;29.00
15615;DHT22;7907;51.368;6.730;2023-02-26T15:45:47;17.90;28.90
15615;DHT22;7907;51.368;6.730;2023-02-26T15:48:19;17.80;28.80
15615;DHT22;7907;51.368;6.730;2023-02-26T15:50:53;17.80;28.70
15615;DHT22;7907;51.368;6.730;2023-02-26T15:53:28;17.70;28.70
15615;DHT22;7907;51.368;6.730;2023-02-26T15:55:57;17.70;29.10
15615;DHT22;7907;51.368;6.730;2023-02-26T15:58:34;17.60;28.90
15615;DHT22;7907;51.368;6.730;2023-02-26T16:01:03;17.30;29.20
15615;DHT22;7907;51.368;6.730;2023-02-26T16:03:31;16.60;29.50
15615;DHT22;7907;51.368;6.730;2023-02-26T16:06:01;16.00;30.00
15615;DHT22;7907;51.368;6.730;2023-02-26T16:08:29;15.30;30.00
15615;DHT22;7907;51.368;6.730;2023-02-26T16:11:06;14.30;31.00
15615;DHT22;7907;51.368;6.730;2023-02-26T16:13:37;13.60;31.70
15615;DHT22;7907;51.368;6.730;2023-02-26T16:16:08;12.90;32.40
15615;DHT22;7907;51.368;6.730;2023-02-26T16:18:39;12.40;33.50
15615;DHT22;7907;51.368;6.730;2023-02-26T16:21:13;11.70;34.50
15615;DHT22;7907;51.368;6.730;2023-02-26T16:23:45;11.30;35.80
15615;DHT22;7907;51.368;6.730;2023-02-26T16:26:21;10.80;36.10
15615;DHT22;7907;51.368;6.730;2023-02-26T16:28:54;10.40;37.00
15615;DHT22;7907;51.368;6.730;2023-02-26T16:31:24;10.10;37.80
15615;DHT22;7907;51.368;6.730;2023-02-26T16:33:56;9.90;38.50
15615;DHT22;7907;51.368;6.730;2023-02-26T16:36:30;9.60;38.70
15615;DHT22;7907;51.368;6.730;2023-02-26T16:39:09;9.40;39.50
15615;DHT22;7907;51.368;6.730;2023-02-26T16:41:39;9.10;39.70
15615;DHT22;7907;51.368;6.730;2023-02-26T16:44:45;8.80;40.00
15615;DHT22;7907;51.368;6.730;2023-02-26T16:47:13;8.70;40.60
15615;DHT22;7907;51.368;6.730;2023-02-26T16:49:41;8.50;41.00
15615;DHT22;7907;51.368;6.730;2023-02-26T16:52:16;8.30;41.30
15615;DHT22;7907;51.368;6.730;2023-02-26T16:54:54;8.20;41.70
15615;DHT22;7907;51.368;6.730;2023-02-26T16:57:26;8.10;42.00
15615;DHT22;7907;51.368;6.730;2023-02-26T16:59:57;7.90;42.40
15615;DHT22;7907;51.368;6.730;2023-02-26T17:02:27;7.80;42.90
15615;DHT22;7907;51.368;6.730;2023-02-26T17:04:59;7.60;43.30
15615;DHT22;7907;51.368;6.730;2023-02-26T17:07:30;7.50;43.70
15615;DHT22;7907;51.368;6.730;2023-02-26T17:10:03;7.30;44.20
15615;DHT22;7907;51.368;6.730;2023-02-26T17:12:41;7.10;44.40
15615;DHT22;7907;51.368;6.730;2023-02-26T17:15:15;7.00;45.00
15615;DHT22;7907;51.368;6.730;2023-02-26T17:17:43;6.80;45.00
15615;DHT22;7907;51.368;6.730;2023-02-26T17:20:11;6.80;45.30
15615;DHT22;7907;51.368;6.730;2023-02-26T17:22:41;6.60;45.70
15615;DHT22;7907;51.368;6.730;2023-02-26T17:25:13;6.50;45.80
15615;DHT22;7907;51.368;6.730;2023-02-26T17:27:41;6.40;46.10
15615;DHT22;7907;51.368;6.730;2023-02-26T17:30:13;6.40;46.50
15615;DHT22;7907;51.368;6.730;2023-02-26T17:32:42;6.30;46.60
15615;DHT22;7907;51.368;6.730;2023-02-26T17:35:12;6.20;48.20
15615;DHT22;7907;51.368;6.730;2023-02-26T17:37:41;6.10;47.20
15615;DHT22;7907;51.368;6.730;2023-02-26T17:40:19;6.00;47.40
15615;DHT22;7907;51.368;6.730;2023-02-26T17:42:47;6.00;47.40
15615;DHT22;7907;51.368;6.730;2023-02-26T17:45:16;6.00;47.60
15615;DHT22;7907;51.368;6.730;2023-02-26T17:47:45;5.80;47.70
15615;DHT22;7907;51.368;6.730;2023-02-26T17:50:22;5.80;47.90
15615;DHT22;7907;51.368;6.730;2023-02-26T17:52:57;5.70;48.20
15615;DHT22;7907;51.368;6.730;2023-02-26T17:55:24;5.60;48.30
15615;DHT22;7907;51.368;6.730;2023-02-26T17:57:55;5.60;48.60
15615;DHT22;7907;51.368;6.730;2023-02-26T18:00:33;5.50;48.80
15615;DHT22;7907;51.368;6.730;2023-02-26T18:03:05;5.40;49.00
15615;DHT22;7907;51.368;6.730;2023-02-26T18:05:32;5.40;49.40
15615;DHT22;7907;51.368;6.730;2023-02-26T18:08:06;5.40;49.40
15615;DHT22;7907;51.368;6.730;2023-02-26T18:10:34;5.30;49.70
15615;DHT22;7907;51.368;6.730;2023-02-26T18:13:02;5.30;50.10
15615;DHT22;7907;51.368;6.730;2023-02-26T18:15:29;5.20;50.60
15615;DHT22;7907;51.368;6.730;2023-02-26T18:17:56;5.20;50.80
15615;DHT22;7907;51.368;6.730;2023-02-26T18:20:24;5.20;51.10
15615;DHT22;7907;51.368;6.730;2023-02-26T18:22:51;5.20;51.30
15615;DHT22;7907;51.368;6.730;2023-02-26T18:25:21;5.20;51.60
15615;DHT22;7907;51.368;6.730;2023-02-26T18:27:51;5.20;51.90